Terminal Aerodrome Forecast
Issued by NWS Northern Indiana

Home | Current Version | Previous Version | Text Only | Print | Product List | Glossary Off
Versions: 1 2 3 4 5 6 7 8 9 10 11 12 13 14 15 16 17 18 19 20 21 22 23 24 25 26 27

000
FTUS43 KIWX 202300 RRA
TAFFWA
TAF
KFWA 202339Z 2100/2124 VRB03KT P6SM SCT060 BKN150
     FM211100 21005KT P6SM SCT030 BKN060
      TEMPO 2113/2117 4SM TSRA BR BKN030CB
     FM211700 22010KT 6SM -SHRA BR OVC040
      TEMPO 2117/2121 3SM TSRA BR OVC020CB=

USA.gov is the U.S. government's official web portal to all federal, state and local government web resources and services.